地図

経路データ

SID SEASON NUMBER BASIN SUBBASIN NAME ISO_TIME NATURE LAT LON WMO_WIND WMO_PRES WMO_AGENCY TRACK_TYPE DIST2LAND LANDFALL IFLAG USA_AGENCY USA_ATCF_ID USA_LAT USA_LON USA_RECORD USA_STATUS USA_WIND USA_PRES USA_SSHS USA_R34_NE USA_R34_SE USA_R34_SW USA_R34_NW USA_R50_NE USA_R50_SE USA_R50_SW USA_R50_NW USA_R64_NE USA_R64_SE USA_R64_SW USA_R64_NW USA_POCI USA_ROCI USA_RMW USA_EYE TOKYO_LAT TOKYO_LON TOKYO_GRADE TOKYO_WIND TOKYO_PRES TOKYO_R50_DIR TOKYO_R50_LONG TOKYO_R50_SHORT TOKYO_R30_DIR TOKYO_R30_LONG TOKYO_R30_SHORT TOKYO_LAND CMA_LAT CMA_LON CMA_CAT CMA_WIND CMA_PRES HKO_LAT HKO_LON HKO_CAT HKO_WIND HKO_PRES NEWDELHI_LAT NEWDELHI_LON NEWDELHI_GRADE NEWDELHI_WIND NEWDELHI_PRES NEWDELHI_CI NEWDELHI_DP NEWDELHI_POCI REUNION_LAT REUNION_LON REUNION_TYPE REUNION_WIND REUNION_PRES REUNION_TNUM REUNION_CI REUNION_RMW REUNION_R34_NE REUNION_R34_SE REUNION_R34_SW REUNION_R34_NW REUNION_R50_NE REUNION_R50_SE REUNION_R50_SW REUNION_R50_NW REUNION_R64_NE REUNION_R64_SE REUNION_R64_SW REUNION_R64_NW BOM_LAT BOM_LON BOM_TYPE BOM_WIND BOM_PRES BOM_TNUM BOM_CI BOM_RMW BOM_R34_NE BOM_R34_SE BOM_R34_SW BOM_R34_NW BOM_R50_NE BOM_R50_SE BOM_R50_SW BOM_R50_NW BOM_R64_NE BOM_R64_SE BOM_R64_SW BOM_R64_NW BOM_ROCI BOM_POCI BOM_EYE BOM_POS_METHOD BOM_PRES_METHOD NADI_LAT NADI_LON NADI_CAT NADI_WIND NADI_PRES WELLINGTON_LAT WELLINGTON_LON WELLINGTON_WIND WELLINGTON_PRES DS824_LAT DS824_LON DS824_STAGE DS824_WIND DS824_PRES TD9636_LAT TD9636_LON TD9636_STAGE TD9636_WIND TD9636_PRES TD9635_LAT TD9635_LON TD9635_WIND TD9635_PRES TD9635_ROCI NEUMANN_LAT NEUMANN_LON NEUMANN_CLASS NEUMANN_WIND NEUMANN_PRES MLC_LAT MLC_LON MLC_CLASS MLC_WIND MLC_PRES USA_GUST BOM_GUST BOM_GUST_PER REUNION_GUST REUNION_GUST_PER USA_SEAHGT USA_SEARAD_NE USA_SEARAD_SE USA_SEARAD_SW USA_SEARAD_NW STORM_SPEED STORM_DIR
1979230N11246 1979 72 EP MM ENRIQUE 1979-08-17 18:00:00 TS 11.2000 -113.800 30 hurdat_epa main 1316 1316 O________OO___ hurdat_epa EP051979 11.2000 -113.800 TD 30 -1 11.2000 -113.800 TC 30 11.2000 -113.800 1 30 11 265
1979230N11246 1979 72 EP MM ENRIQUE 1979-08-17 21:00:00 TS 11.1527 -114.360 main 1361 1361 P________PP___ EP051979 11.1502 -114.360 TD 32 -1 11.1502 -114.360 TC 32 11.1628 -114.358 1 32 11 270
1979230N11246 1979 72 EP MM ENRIQUE 1979-08-18 00:00:00 TS 11.2000 -114.900 35 hurdat_epa main 1400 1400 O________OO___ hurdat_epa EP051979 11.2000 -114.900 TS 35 0 11.2000 -114.900 TC 35 11.2000 -114.900 2 35 11 284
1979230N11246 1979 72 EP MM ENRIQUE 1979-08-18 03:00:00 TS 11.4030 -115.409 main 1408 1395 P________PP___ EP051979 11.4124 -115.407 TS 35 0 11.4124 -115.407 TC 35 11.3653 -115.416 2 38 11 296
1979230N11246 1979 72 EP MM ENRIQUE 1979-08-18 06:00:00 TS 11.6849 -115.903 35 hurdat_epa main 1400 1395 O________OP___ hurdat_epa EP051979 11.7000 -115.900 TS 35 0 11.7000 -115.900 TC 35 11.6245 -115.913 2 42 11 299
1979230N11246 1979 72 EP MM ENRIQUE 1979-08-18 09:00:00 TS 11.9382 -116.401 main 1405 1395 P________PP___ EP051979 11.9424 -116.400 TS 42 0 11.9424 -116.400 TC 42 11.9215 -116.404 2 46 11 298
1979230N11246 1979 72 EP MM ENRIQUE 1979-08-18 12:00:00 TS 12.2000 -116.900 50 hurdat_epa main 1402 1394 O________OO___ hurdat_epa EP051979 12.2000 -116.900 TS 50 0 12.2000 -116.900 TC 50 12.2000 -116.900 2 50 11 300
1979230N11246 1979 72 EP MM ENRIQUE 1979-08-18 15:00:00 TS 12.5089 -117.398 main 1402 1398 P________PP___ EP051979 12.5374 -117.392 TS 52 0 12.5374 -117.392 TC 52 12.3948 -117.422 2 53 11 299
1979230N11246 1979 72 EP MM ENRIQUE 1979-08-18 18:00:00 TS 12.7520 -117.910 55 hurdat_epa main 1404 1404 O________OP___ hurdat_epa EP051979 12.8000 -117.900 TS 55 0 12.8000 -117.900 TC 55 12.5598 -117.950 2 57 11 286
1979230N11246 1979 72 EP MM ENRIQUE 1979-08-18 21:00:00 TS 12.8089 -118.456 main 1443 1443 P________PP___ EP051979 12.8375 -118.450 TS 60 0 12.8375 -118.450 TC 60 12.6948 -118.478 2 61 11 273
1979230N11246 1979 72 EP MM ENRIQUE 1979-08-19 00:00:00 TS 12.8000 -119.000 65 hurdat_epa main 1476 1476 O________OO___ hurdat_epa EP051979 12.8000 -119.000 HU 65 1 12.8000 -119.000 TC 65 12.8000 -119.000 4 65 10 272
1979230N11246 1979 72 EP MM ENRIQUE 1979-08-19 03:00:00 TS 12.8480 -119.508 main 1511 1502 P________PP___ EP051979 12.8424 -119.507 HU 65 1 12.8424 -119.507 TC 65 12.8703 -119.512 4 66 10 276
1979230N11246 1979 72 EP MM ENRIQUE 1979-08-19 06:00:00 TS 12.9029 -120.003 65 hurdat_epa main 1538 1538 O________OP___ hurdat_epa EP051979 12.9000 -120.000 HU 65 1 12.9000 -120.000 TC 65 12.9146 -120.016 4 67 10 276
1979230N11246 1979 72 EP MM ENRIQUE 1979-08-19 09:00:00 TS 12.9502 -120.502 main 1567 1567 P________PP___ EP051979 12.9499 -120.500 HU 67 1 12.9499 -120.500 TC 67 12.9516 -120.512 4 68 10 276
1979230N11246 1979 72 EP MM ENRIQUE 1979-08-19 12:00:00 TS 13.0000 -121.000 70 hurdat_epa main 1605 1605 O________OO___ hurdat_epa EP051979 13.0000 -121.000 HU 70 1 13.0000 -121.000 TC 70 13.0000 -121.000 4 70 10 275
1979230N11246 1979 72 EP MM ENRIQUE 1979-08-19 15:00:00 TS 13.0418 -121.505 main 1639 1636 P________PP___ EP051979 13.0349 -121.508 HU 70 1 13.0349 -121.508 TC 70 13.0692 -121.495 4 70 10 277
1979230N11246 1979 72 EP MM ENRIQUE 1979-08-19 18:00:00 TS 13.1110 -121.996 70 hurdat_epa main 1662 1662 O________OP___ hurdat_epa EP051979 13.1000 -122.000 HU 70 1 13.1000 -122.000 TC 70 13.1548 -121.980 4 70 9 282
1979230N11246 1979 72 EP MM ENRIQUE 1979-08-19 21:00:00 TS 13.2345 -122.456 main 1686 1678 P________PP___ EP051979 13.2274 -122.458 HU 70 1 13.2274 -122.458 TC 70 13.2630 -122.451 4 70 9 288
1979230N11246 1979 72 EP MM ENRIQUE 1979-08-20 00:00:00 TS 13.4000 -122.900 70 hurdat_epa main 1697 1697 O________OO___ hurdat_epa EP051979 13.4000 -122.900 HU 70 1 13.4000 -122.900 TC 70 13.4000 -122.900 4 70 10 292
1979230N11246 1979 72 EP MM ENRIQUE 1979-08-20 03:00:00 TS 13.5890 -123.360 main 1715 1714 P________PP___ EP051979 13.5925 -123.365 HU 67 1 13.5925 -123.365 TC 67 13.5751 -123.342 4 68 10 295
1979230N11246 1979 72 EP MM ENRIQUE 1979-08-20 06:00:00 TS 13.7955 -123.792 65 hurdat_epa main 1728 1728 O________OP___ hurdat_epa EP051979 13.8000 -123.800 HU 65 1 13.8000 -123.800 TC 65 13.7773 -123.760 4 67 9 297
1979230N11246 1979 72 EP MM ENRIQUE 1979-08-20 09:00:00 TS 13.9981 -124.174 main 1742 1741 P________PP___ EP051979 13.9999 -124.180 HU 65 1 13.9999 -124.180 TC 65 13.9909 -124.148 4 66 8 300
1979230N11246 1979 72 EP MM ENRIQUE 1979-08-20 12:00:00 TS 14.2000 -124.500 65 hurdat_epa main 1749 1749 O________OO___ hurdat_epa EP051979 14.2000 -124.500 HU 65 1 14.2000 -124.500 TC 65 14.2000 -124.500 4 65 7 305
1979230N11246 1979 72 EP MM ENRIQUE 1979-08-20 15:00:00 TS 14.3999 -124.771 main 1757 1749 P________PP___ EP051979 14.4074 -124.758 HU 65 1 14.4074 -124.758 TC 65 14.3697 -124.823 4 65 6 307
1979230N11246 1979 72 EP MM ENRIQUE 1979-08-20 18:00:00 TS 14.5869 -125.022 65 hurdat_epa main 1757 1757 O________OP___ hurdat_epa EP051979 14.6000 -125.000 HU 65 1 14.6000 -125.000 TC 65 14.5347 -125.110 4 65 6 302
1979230N11246 1979 72 EP MM ENRIQUE 1979-08-20 21:00:00 TS 14.7355 -125.319 main 1774 1774 P________PP___ EP051979 14.7425 -125.308 HU 65 1 14.7425 -125.308 TC 65 14.7073 -125.367 4 65 6 299
1979230N11246 1979 72 EP MM ENRIQUE 1979-08-21 00:00:00 TS 14.9000 -125.600 65 hurdat_epa main 1783 1783 O________OO___ hurdat_epa EP051979 14.9000 -125.600 HU 65 1 14.9000 -125.600 TC 65 14.9000 -125.600 4 65 6 310
1979230N11246 1979 72 EP MM ENRIQUE 1979-08-21 03:00:00 TS 15.1328 -125.814 main 1785 1778 P________PP___ EP051979 15.1349 -125.815 HU 60 0 15.1349 -125.815 TC 60 15.1241 -125.810 4 63 6 322
1979230N11246 1979 72 EP MM ENRIQUE 1979-08-21 06:00:00 TS 15.3939 -126.000 55 hurdat_epa main 1781 1771 O________OP___ hurdat_epa EP051979 15.4000 -126.000 TS 55 0 15.4000 -126.000 TC 55 15.3697 -126.000 4 62 6 324
1979230N11246 1979 72 EP MM ENRIQUE 1979-08-21 09:00:00 TS 15.6401 -126.198 main 1778 1765 P________PP___ EP051979 15.6425 -126.200 TS 57 0 15.6425 -126.200 TC 57 15.6304 -126.191 4 61 6 323
1979230N11246 1979 72 EP MM ENRIQUE 1979-08-21 12:00:00 TS 15.9000 -126.400 60 hurdat_epa main 1765 1753 O________OO___ hurdat_epa EP051979 15.9000 -126.400 TS 60 0 15.9000 -126.400 TC 60 15.9000 -126.400 2 60 7 326
1979230N11246 1979 72 EP MM ENRIQUE 1979-08-21 15:00:00 TS 16.1926 -126.588 main 1753 1742 P________PP___ EP051979 16.1999 -126.578 TS 70 1 16.1999 -126.578 TC 70 16.1635 -126.629 2 72 7 326
1979230N11246 1979 72 EP MM ENRIQUE 1979-08-21 18:00:00 TS 16.4869 -126.817 80 hurdat_epa main 1742 1740 O________OP___ hurdat_epa EP051979 16.5000 -126.800 HU 80 1 16.5000 -126.800 TC 80 16.4346 -126.883 2 85 8 317
1979230N11246 1979 72 EP MM ENRIQUE 1979-08-21 21:00:00 TS 16.7427 -127.130 main 1747 1739 P________PP___ EP051979 16.7500 -127.120 HU 95 2 16.7500 -127.120 TC 95 16.7134 -127.170 2 97 8 308
1979230N11246 1979 72 EP MM ENRIQUE 1979-08-22 00:00:00 TS 17.0000 -127.500 110 hurdat_epa main 1753 1752 O________OO___ hurdat_epa EP051979 17.0000 -127.500 HU 110 3 17.0000 -127.500 TC 110 17.0000 -127.500 4 110 9 307
1979230N11246 1979 72 EP MM ENRIQUE 1979-08-22 03:00:00 TS 17.2909 -127.886 main 1760 1760 P________PP___ EP051979 17.2924 -127.885 HU 115 4 17.2924 -127.885 TC 115 17.2849 -127.890 4 113 10 308
1979230N11246 1979 72 EP MM ENRIQUE 1979-08-22 06:00:00 TS 17.5956 -128.304 120 hurdat_epa main 1768 1768 O________OP___ hurdat_epa EP051979 17.6000 -128.300 HU 120 4 17.6000 -128.300 TC 120 17.5778 -128.320 4 117 10 306
1979230N11246 1979 72 EP MM ENRIQUE 1979-08-22 09:00:00 TS 17.8904 -128.759 main 1786 1786 P________PP___ EP051979 17.8925 -128.758 HU 122 4 17.8925 -128.758 TC 122 17.8818 -128.765 4 121 10 305
1979230N11246 1979 72 EP MM ENRIQUE 1979-08-22 12:00:00 TS 18.2000 -129.200 125 hurdat_epa main 1797 1797 O________OO___ hurdat_epa EP051979 18.2000 -129.200 HU 125 4 18.2000 -129.200 TC 125 18.2000 -129.200 4 125 10 311
1979230N11246 1979 72 EP MM ENRIQUE 1979-08-22 15:00:00 TS 18.5458 -129.566 main 1809 1803 P________PP___ EP051979 18.5423 -129.558 HU 125 4 18.5423 -129.558 TC 125 18.5597 -129.597 4 118 10 316
1979230N11246 1979 72 EP MM ENRIQUE 1979-08-22 18:00:00 TS 18.9059 -129.916 125 hurdat_epa main 1808 1808 O________OP___ hurdat_epa EP051979 18.9000 -129.900 HU 125 4 18.9000 -129.900 TC 125 18.9297 -129.980 4 112 10 316
1979230N11246 1979 72 EP MM ENRIQUE 1979-08-22 21:00:00 TS 19.2690 -130.315 main 1817 1817 P________PP___ EP051979 19.2650 -130.307 HU 117 4 19.2650 -130.307 TC 117 19.2848 -130.347 4 106 10 313
1979230N11246 1979 72 EP MM ENRIQUE 1979-08-23 00:00:00 TS 19.6000 -130.700 110 hurdat_epa main 1834 1834 O________OO___ hurdat_epa EP051979 19.6000 -130.700 HU 110 3 19.6000 -130.700 TC 110 19.6000 -130.700 4 100 9 313
1979230N11246 1979 72 EP MM ENRIQUE 1979-08-23 03:00:00 TS 19.8732 -131.013 main 1843 1843 P________PP___ EP051979 19.8798 -131.008 HU 92 2 19.8798 -131.008 TC 92 19.8467 -131.032 4 88 8 311
1979230N11246 1979 72 EP MM ENRIQUE 1979-08-23 06:00:00 TS 20.0904 -131.310 75 hurdat_epa main 1858 1858 O________OP___ hurdat_epa EP051979 20.1000 -131.300 HU 75 1 20.1000 -131.300 TC 75 20.0519 -131.351 4 77 7 302
1979230N11246 1979 72 EP MM ENRIQUE 1979-08-23 09:00:00 TS 20.2522 -131.648 main 1874 1874 P________PP___ EP051979 20.2575 -131.643 HU 65 1 20.2575 -131.643 TC 65 20.2311 -131.669 4 66 7 296
1979230N11246 1979 72 EP MM ENRIQUE 1979-08-23 12:00:00 TS 20.4000 -132.000 55 hurdat_epa main 1905 1905 O________OO___ hurdat_epa EP051979 20.4000 -132.000 TS 55 0 20.4000 -132.000 TC 55 20.4000 -132.000 2 55 7 298
1979230N11246 1979 72 EP MM ENRIQUE 1979-08-23 15:00:00 TS 20.6012 -132.345 main 1922 1922 P________PP___ EP051979 20.5999 -132.343 TS 50 0 20.5999 -132.343 TC 50 20.6064 -132.356 2 48 8 301
1979230N11246 1979 72 EP MM ENRIQUE 1979-08-23 18:00:00 TS 20.8005 -132.705 45 hurdat_epa main 1932 1929 O________OP___ hurdat_epa EP051979 20.8000 -132.700 TS 45 0 20.8000 -132.700 TC 45 20.8023 -132.727 2 42 8 298
1979230N11246 1979 72 EP MM ENRIQUE 1979-08-23 21:00:00 TS 20.9783 -133.090 main 1939 1939 P________PP___ EP051979 20.9799 -133.085 TS 37 0 20.9799 -133.085 TC 37 20.9720 -133.109 2 36 8 292
1979230N11246 1979 72 EP MM ENRIQUE 1979-08-24 00:00:00 TS 21.1000 -133.500 30 hurdat_epa main 1955 1955 O________OO___ hurdat_epa EP051979 21.1000 -133.500 TD 30 -1 21.1000 -133.500 TC 30 21.1000 -133.500 1 30 8 281
1979230N11246 1979 72 EP MM ENRIQUE 1979-08-24 03:00:00 TS 21.1272 -133.945 main 1980 1980 P________PP___ EP051979 21.1150 -133.958 TD 30 -1 21.1150 -133.958 TC 30 21.1757 -133.896 1 28 8 271
1979230N11246 1979 72 EP MM ENRIQUE 1979-08-24 06:00:00 TS 21.1171 -134.383 30 hurdat_epa main 2013 2013 O________OP___ hurdat_epa EP051979 21.1000 -134.400 TD 30 -1 21.1000 -134.400 TC 30 21.2082 -134.295 1 27 8 272
1979230N11246 1979 72 EP MM ENRIQUE 1979-08-24 09:00:00 TS 21.1500 -134.757 main 2031 2031 P________PP___ EP051979 21.1423 -134.765 TD 27 -1 21.1423 -134.765 TC 27 21.2116 -134.697 1 26 7 277
1979230N11246 1979 72 EP MM ENRIQUE 1979-08-24 12:00:00 TS 21.2000 -135.100 25 hurdat_epa main 2051 2029 O________OO___ hurdat_epa EP051979 21.2000 -135.100 TD 25 -1 21.2000 -135.100 TC 25 21.2000 -135.100 1 25 6 279
1979230N11246 1979 72 EP MM ENRIQUE 1979-08-24 15:00:00 TS 21.2527 -135.445 main 2030 1988 P________P____ EP051979 21.2527 -135.445 TD 25 -1 21.2527 -135.445 TC 25 1 7 279
1979230N11246 1979 72 EP MM ENRIQUE 1979-08-24 18:00:00 TS 21.3000 -135.800 25 hurdat_epa main 1988 O________O____ hurdat_epa EP051979 21.3000 -135.800 TD 25 -1 21.3000 -135.800 TC 25 1 7 278

IBTrACS Databaseについて

本データベースは、米国NOAAが公開する1842年以降の世界の熱帯低気圧のベストトラックデータアーカイブInternational Best Track Archive for Climate Stewardship (IBTrACS)を、ウェブで閲覧しやすい形式に変換したものです。

最終更新日:2021-12-03